Time;durP1;ratioP1;P1;durP2;ratioP2;P2;SDS_P1;SDS_P2;PMS_P1;PMS_P2;Temp;Humidity;BMP_temperature;BMP_pressure;BME280_temperature;BME280_humidity;BME280_pressure;Samples;Min_cycle;Max_cycle;Signal;HPM_P1;HPM_P2
2023/09/10 00:00:42;;;;;;;5.78;5.38;;;;;;;;;;5058194;28;20308;-64
2023/09/10 00:03:09;;;;;;;5.28;4.88;;;;;;;;;;5057764;28;20295;-64
2023/09/10 00:05:37;;;;;;;6.10;5.60;;;;;;;;;;5058010;28;20621;-65
2023/09/10 00:08:05;;;;;;;5.68;5.28;;;;;;;;;;5058361;28;20608;-64
2023/09/10 00:10:32;;;;;;;6.10;5.70;;;;;;;;;;5058257;28;20205;-64
2023/09/10 00:13:00;;;;;;;5.80;5.40;;;;;;;;;;5058605;28;20229;-64
2023/09/10 00:15:28;;;;;;;5.97;5.57;;;;;;;;;;5058628;28;20213;-64
2023/09/10 00:17:57;;;;;;;6.13;5.63;;;;;;;;;;5058258;28;20204;-64
2023/09/10 00:20:26;;;;;;;6.20;5.70;;;;;;;;;;5058480;28;20573;-64
2023/09/10 00:22:54;;;;;;;6.05;5.55;;;;;;;;;;5058475;28;20229;-64
2023/09/10 00:25:22;;;;;;;5.90;5.50;;;;;;;;;;5058334;28;20287;-64
2023/09/10 00:27:50;;;;;;;5.93;5.50;;;;;;;;;;5058088;28;20308;-64
2023/09/10 00:30:17;;;;;;;6.05;5.65;;;;;;;;;;5058713;28;20205;-64
2023/09/10 00:32:45;;;;;;;5.32;4.93;;;;;;;;;;5058669;28;20211;-64
2023/09/10 00:35:14;;;;;;;5.72;5.32;;;;;;;;;;5058000;28;20495;-64
2023/09/10 00:37:41;;;;;;;5.43;5.03;;;;;;;;;;5058622;28;20213;-64
2023/09/10 00:40:10;;;;;;;5.60;5.20;;;;;;;;;;5058407;28;20227;-64
2023/09/10 00:42:38;;;;;;;5.47;5.07;;;;;;;;;;5058422;28;20225;-64
2023/09/10 00:45:06;;;;;;;5.70;5.30;;;;;;;;;;5058072;28;20295;-64
2023/09/10 00:47:34;;;;;;;5.75;5.35;;;;;;;;;;5058262;28;20212;-64
2023/09/10 00:50:03;;;;;;;5.90;5.50;;;;;;;;;;5057605;28;20482;-64
2023/09/10 00:52:32;;;;;;;6.18;5.70;;;;;;;;;;5058014;28;20236;-64
2023/09/10 00:55:00;;;;;;;6.20;5.70;;;;;;;;;;5057936;28;20228;-64
2023/09/10 00:57:28;;;;;;;6.18;5.70;;;;;;;;;;5057502;28;20271;-64
2023/09/10 00:59:56;;;;;;;5.57;5.18;;;;;;;;;;5058176;28;20216;-64
2023/09/10 01:02:24;;;;;;;5.82;5.43;;;;;;;;;;5056936;28;20229;-64
2023/09/10 01:04:51;;;;;;;5.70;5.20;;;;;;;;;;5057829;28;20205;-64
2023/09/10 01:07:19;;;;;;;5.90;5.50;;;;;;;;;;5058262;28;20212;-64
2023/09/10 01:09:48;;;;;;;5.75;5.35;;;;;;;;;;5058030;28;20220;-64
2023/09/10 01:12:19;;;;;;;6.00;5.60;;;;;;;;;;5057843;28;20211;-64
2023/09/10 01:14:50;;;;;;;5.60;5.20;;;;;;;;;;5058276;28;20209;-64
2023/09/10 01:17:23;;;;;;;5.82;5.35;;;;;;;;;;5057780;28;20211;-64
2023/09/10 01:20:07;;;;;;;5.30;4.95;;;;;;;;;;5057675;28;20205;-64
2023/09/10 01:22:37;;;;;;;5.68;5.28;;;;;;;;;;5057639;28;20229;-64
2023/09/10 01:25:07;;;;;;;5.47;5.07;;;;;;;;;;5057550;28;20215;-64
2023/09/10 01:27:35;;;;;;;6.05;5.55;;;;;;;;;;5057370;28;20205;-64
2023/09/10 01:30:03;;;;;;;5.50;5.10;;;;;;;;;;5057264;28;20207;-64
2023/09/10 01:32:33;;;;;;;5.95;5.55;;;;;;;;;;5056990;28;20236;-63
2023/09/10 01:35:02;;;;;;;5.82;5.43;;;;;;;;;;5057487;28;20616;-63
2023/09/10 01:37:34;;;;;;;6.00;5.50;;;;;;;;;;5057418;28;20205;-63
2023/09/10 01:40:05;;;;;;;5.28;4.88;;;;;;;;;;5057482;28;20207;-63
2023/09/10 01:42:35;;;;;;;5.57;5.18;;;;;;;;;;5057431;28;20247;-63
2023/09/10 01:45:03;;;;;;;5.32;4.93;;;;;;;;;;5057073;28;20208;-63
2023/09/10 01:47:31;;;;;;;5.95;5.47;;;;;;;;;;5057176;28;20208;-63
2023/09/10 01:49:59;;;;;;;5.55;5.20;;;;;;;;;;5057318;28;20615;-63
2023/09/10 01:52:27;;;;;;;5.68;5.28;;;;;;;;;;5057115;28;20201;-63
2023/09/10 01:54:54;;;;;;;5.65;5.15;;;;;;;;;;5056711;28;20469;-63
2023/09/10 01:57:22;;;;;;;5.85;5.45;;;;;;;;;;5057080;28;20240;-63
2023/09/10 01:59:51;;;;;;;5.70;5.30;;;;;;;;;;5057464;28;20592;-64
2023/09/10 02:02:19;;;;;;;5.78;5.38;;;;;;;;;;5057285;28;20225;-64
2023/09/10 02:04:46;;;;;;;5.70;5.30;;;;;;;;;;5057781;28;20224;-64
2023/09/10 02:07:14;;;;;;;5.60;5.20;;;;;;;;;;5057312;28;20205;-64
2023/09/10 02:09:41;;;;;;;5.57;5.18;;;;;;;;;;5057591;28;20205;-64
2023/09/10 02:12:09;;;;;;;5.40;5.00;;;;;;;;;;5057383;28;20208;-63
2023/09/10 02:14:37;;;;;;;5.57;5.18;;;;;;;;;;5056994;28;20299;-63
2023/09/10 02:17:08;;;;;;;5.35;4.95;;;;;;;;;;5057692;28;20546;-63
2023/09/10 02:19:35;;;;;;;5.50;5.10;;;;;;;;;;5056890;28;20212;-63
2023/09/10 02:22:04;;;;;;;5.30;5.00;;;;;;;;;;5056933;28;20255;-63
2023/09/10 02:24:31;;;;;;;5.65;5.10;;;;;;;;;;5057002;28;20232;-64
2023/09/10 02:26:59;;;;;;;5.57;5.18;;;;;;;;;;5056667;28;20205;-64
2023/09/10 02:29:26;;;;;;;5.55;5.15;;;;;;;;;;5056691;28;20254;-64
2023/09/10 02:31:54;;;;;;;5.68;5.28;;;;;;;;;;5057083;28;20209;-64
2023/09/10 02:34:23;;;;;;;5.80;5.40;;;;;;;;;;5057192;28;20205;-63
2023/09/10 02:36:51;;;;;;;5.13;4.72;;;;;;;;;;5056426;28;20204;-64
2023/09/10 02:39:18;;;;;;;5.82;5.43;;;;;;;;;;5056793;28;20240;-64
2023/09/10 02:41:46;;;;;;;5.43;4.93;;;;;;;;;;5057004;28;20214;-64
2023/09/10 02:44:14;;;;;;;5.45;4.97;;;;;;;;;;5056460;28;20225;-64
2023/09/10 02:46:42;;;;;;;5.93;5.53;;;;;;;;;;5056690;28;20205;-64
2023/09/10 02:49:09;;;;;;;4.95;4.65;;;;;;;;;;5056848;28;20211;-64
2023/09/10 02:51:38;;;;;;;5.70;5.30;;;;;;;;;;5057012;28;20205;-64
2023/09/10 02:54:06;;;;;;;5.78;5.38;;;;;;;;;;5056595;28;20206;-64
2023/09/10 02:56:34;;;;;;;5.82;5.43;;;;;;;;;;5056575;28;20574;-64
2023/09/10 02:59:01;;;;;;;5.90;5.40;;;;;;;;;;5056040;28;20241;-64
2023/09/10 03:01:30;;;;;;;5.40;5.00;;;;;;;;;;5055913;28;20216;-64
2023/09/10 03:03:58;;;;;;;5.32;4.95;;;;;;;;;;5056245;28;20224;-64
2023/09/10 03:06:25;;;;;;;5.70;5.30;;;;;;;;;;5056213;28;20220;-64
2023/09/10 03:08:54;;;;;;;5.68;5.28;;;;;;;;;;5056659;28;20205;-64
2023/09/10 03:11:22;;;;;;;5.38;4.97;;;;;;;;;;5056479;28;20292;-63
2023/09/10 03:13:50;;;;;;;5.43;5.05;;;;;;;;;;5056400;28;20238;-63
2023/09/10 03:16:17;;;;;;;5.53;5.20;;;;;;;;;;5056367;28;20205;-64
2023/09/10 03:18:45;;;;;;;5.70;5.20;;;;;;;;;;5056646;28;20573;-64
2023/09/10 03:21:14;;;;;;;5.47;5.07;;;;;;;;;;5056958;28;20527;-64
2023/09/10 03:23:42;;;;;;;4.95;4.65;;;;;;;;;;5056745;28;20229;-64
2023/09/10 03:26:13;;;;;;;5.43;5.03;;;;;;;;;;5058178;28;20542;-63
2023/09/10 03:28:42;;;;;;;5.72;5.20;;;;;;;;;;5059569;28;20515;-63
2023/09/10 03:31:10;;;;;;;5.50;5.10;;;;;;;;;;5060313;28;20213;-63
2023/09/10 03:33:37;;;;;;;5.63;5.22;;;;;;;;;;5060436;28;20216;-64
2023/09/10 03:36:06;;;;;;;5.57;5.18;;;;;;;;;;5060260;28;20589;-64
2023/09/10 03:38:34;;;;;;;5.57;5.18;;;;;;;;;;5060137;28;20267;-64
2023/09/10 03:41:02;;;;;;;5.40;5.00;;;;;;;;;;5060049;28;20267;-64
2023/09/10 03:43:31;;;;;;;5.75;5.35;;;;;;;;;;5059647;28;20229;-64
2023/09/10 03:45:59;;;;;;;5.72;5.32;;;;;;;;;;5059819;28;20205;-64
2023/09/10 03:48:27;;;;;;;5.72;5.32;;;;;;;;;;5059841;28;20212;-63
2023/09/10 03:50:55;;;;;;;5.82;5.43;;;;;;;;;;5060023;28;20270;-63
2023/09/10 03:53:22;;;;;;;5.15;4.82;;;;;;;;;;5059557;28;20784;-63
2023/09/10 03:55:50;;;;;;;5.45;5.05;;;;;;;;;;5059687;28;20205;-63
2023/09/10 03:58:18;;;;;;;5.53;5.13;;;;;;;;;;5059470;28;20655;-63
2023/09/10 04:00:47;;;;;;;5.50;5.10;;;;;;;;;;5059628;28;20213;-63
2023/09/10 04:03:14;;;;;;;5.38;4.97;;;;;;;;;;5059043;28;20626;-64
2023/09/10 04:05:42;;;;;;;5.40;5.00;;;;;;;;;;5059377;28;20296;-64
2023/09/10 04:08:10;;;;;;;5.30;5.00;;;;;;;;;;5059477;28;20259;-64
2023/09/10 04:10:37;;;;;;;5.47;5.07;;;;;;;;;;5059654;28;20213;-64
2023/09/10 04:13:05;;;;;;;5.25;4.85;;;;;;;;;;5059382;28;20288;-64
2023/09/10 04:15:32;;;;;;;5.40;5.00;;;;;;;;;;5059542;28;20403;-64
2023/09/10 04:18:01;;;;;;;5.22;4.90;;;;;;;;;;5058666;28;20205;-64
2023/09/10 04:20:29;;;;;;;4.72;4.40;;;;;;;;;;5059488;28;20205;-64
2023/09/10 04:22:56;;;;;;;5.60;5.20;;;;;;;;;;5059201;28;20224;-63
2023/09/10 04:25:24;;;;;;;5.50;5.10;;;;;;;;;;5058840;28;20297;-63
2023/09/10 04:27:51;;;;;;;4.80;4.50;;;;;;;;;;5059494;28;20302;-63
2023/09/10 04:30:18;;;;;;;5.60;5.20;;;;;;;;;;5058985;28;20692;-63
2023/09/10 04:32:46;;;;;;;5.50;5.10;;;;;;;;;;5059138;28;20296;-63
2023/09/10 04:35:15;;;;;;;5.38;4.97;;;;;;;;;;5059036;28;20267;-63
2023/09/10 04:37:43;;;;;;;5.28;4.95;;;;;;;;;;5059122;28;20205;-65
2023/09/10 04:40:10;;;;;;;5.18;4.88;;;;;;;;;;5058933;28;20244;-64
2023/09/10 04:42:38;;;;;;;5.43;5.03;;;;;;;;;;5058704;28;20205;-64
2023/09/10 04:45:06;;;;;;;5.20;4.90;;;;;;;;;;5058997;28;20315;-64
2023/09/10 04:47:33;;;;;;;5.50;5.10;;;;;;;;;;5058551;28;20236;-63
2023/09/10 04:50:01;;;;;;;5.60;5.20;;;;;;;;;;5058442;28;20491;-63
2023/09/10 04:52:30;;;;;;;5.32;5.03;;;;;;;;;;5058076;28;20483;-63
2023/09/10 04:54:58;;;;;;;5.90;5.50;;;;;;;;;;5058747;28;20254;-64
2023/09/10 04:57:25;;;;;;;5.35;4.95;;;;;;;;;;5058460;28;20336;-64
2023/09/10 04:59:53;;;;;;;5.45;5.05;;;;;;;;;;5058403;28;20301;-63
2023/09/10 05:02:20;;;;;;;5.60;5.20;;;;;;;;;;5057444;28;20632;-63
2023/09/10 05:04:48;;;;;;;5.75;5.35;;;;;;;;;;5058079;28;20286;-63
2023/09/10 05:07:15;;;;;;;5.28;4.93;;;;;;;;;;5057929;28;20205;-63
2023/09/10 05:09:44;;;;;;;5.15;4.75;;;;;;;;;;5058027;28;20304;-63
2023/09/10 05:12:12;;;;;;;5.50;5.10;;;;;;;;;;5058054;28;20268;-63
2023/09/10 05:14:39;;;;;;;5.38;5.00;;;;;;;;;;5058008;28;20201;-63
2023/09/10 05:17:07;;;;;;;5.15;4.82;;;;;;;;;;5058097;28;20311;-63
2023/09/10 05:19:34;;;;;;;5.50;5.10;;;;;;;;;;5057567;28;20209;-63
2023/09/10 05:22:01;;;;;;;5.15;4.82;;;;;;;;;;5057828;28;20307;-63
2023/09/10 05:24:29;;;;;;;5.05;4.75;;;;;;;;;;5057849;28;20294;-63
2023/09/10 05:26:58;;;;;;;5.30;5.00;;;;;;;;;;5057401;28;20255;-63
2023/09/10 05:29:26;;;;;;;5.07;4.78;;;;;;;;;;5057331;28;20215;-64
2023/09/10 05:31:53;;;;;;;5.30;4.93;;;;;;;;;;5057216;28;20205;-64
2023/09/10 05:34:21;;;;;;;5.22;4.82;;;;;;;;;;5057152;28;20318;-64
2023/09/10 05:36:48;;;;;;;5.35;4.93;;;;;;;;;;5057686;28;20205;-64
2023/09/10 05:39:16;;;;;;;5.10;4.80;;;;;;;;;;5056968;28;20205;-63
2023/09/10 05:41:44;;;;;;;5.30;4.90;;;;;;;;;;5057408;28;20312;-63
2023/09/10 05:44:12;;;;;;;5.60;5.20;;;;;;;;;;5057628;28;20508;-63
2023/09/10 05:46:40;;;;;;;5.15;4.75;;;;;;;;;;5057500;28;20197;-64
2023/09/10 05:49:07;;;;;;;5.15;4.75;;;;;;;;;;5056902;28;20466;-63
2023/09/10 05:51:35;;;;;;;5.35;4.95;;;;;;;;;;5057402;28;20213;-64
2023/09/10 05:54:03;;;;;;;5.18;4.88;;;;;;;;;;5057126;28;20299;-64
2023/09/10 05:56:30;;;;;;;5.38;4.97;;;;;;;;;;5057215;28;20205;-64
2023/09/10 05:58:58;;;;;;;5.20;4.90;;;;;;;;;;5057337;28;20339;-63
2023/09/10 06:01:26;;;;;;;5.13;4.80;;;;;;;;;;5057424;28;20248;-63
2023/09/10 06:03:54;;;;;;;5.53;5.05;;;;;;;;;;5057389;28;20592;-63
2023/09/10 06:06:21;;;;;;;5.32;4.93;;;;;;;;;;5057194;28;20205;-63
2023/09/10 06:08:49;;;;;;;4.93;4.63;;;;;;;;;;5057228;28;20297;-63
2023/09/10 06:11:16;;;;;;;5.55;5.15;;;;;;;;;;5057273;28;20302;-63
2023/09/10 06:13:43;;;;;;;5.15;4.80;;;;;;;;;;5056929;28;20295;-64
2023/09/10 06:16:11;;;;;;;5.43;5.03;;;;;;;;;;5056677;28;20204;-64
2023/09/10 06:18:40;;;;;;;5.15;4.75;;;;;;;;;;5057307;28;20204;-64
2023/09/10 06:21:08;;;;;;;5.30;4.95;;;;;;;;;;5056617;28;20328;-64
2023/09/10 06:23:35;;;;;;;5.15;4.75;;;;;;;;;;5056640;28;20680;-64
2023/09/10 06:26:02;;;;;;;5.50;5.10;;;;;;;;;;5056876;28;20266;-64
2023/09/10 06:28:30;;;;;;;5.80;5.40;;;;;;;;;;5056831;28;20287;-64
2023/09/10 06:30:57;;;;;;;5.70;5.30;;;;;;;;;;5056848;28;20675;-64
2023/09/10 06:33:25;;;;;;;5.60;5.20;;;;;;;;;;5056807;28;20292;-64
2023/09/10 06:35:54;;;;;;;5.63;5.22;;;;;;;;;;5056832;28;20296;-64
2023/09/10 06:38:22;;;;;;;5.82;5.43;;;;;;;;;;5056814;28;20286;-64
2023/09/10 06:40:51;;;;;;;5.45;5.05;;;;;;;;;;5056522;28;20515;-63
2023/09/10 06:43:18;;;;;;;5.85;5.35;;;;;;;;;;5056659;28;20219;-63
2023/09/10 06:45:46;;;;;;;5.00;4.60;;;;;;;;;;5056281;28;20204;-63
2023/09/10 06:48:13;;;;;;;5.22;4.82;;;;;;;;;;5056470;28;20205;-63
2023/09/10 06:50:41;;;;;;;4.82;4.53;;;;;;;;;;5056611;28;20275;-63
2023/09/10 06:53:10;;;;;;;5.30;4.90;;;;;;;;;;5056415;28;20205;-63
2023/09/10 06:55:37;;;;;;;5.03;4.72;;;;;;;;;;5056410;28;20212;-63
2023/09/10 06:58:05;;;;;;;4.95;4.55;;;;;;;;;;5056464;28;20303;-63
2023/09/10 07:00:32;;;;;;;5.35;4.95;;;;;;;;;;5056106;28;20648;-63
2023/09/10 07:03:02;;;;;;;5.07;4.78;;;;;;;;;;5060241;28;20250;-63
2023/09/10 07:05:29;;;;;;;5.13;4.72;;;;;;;;;;5059713;28;20251;-63
2023/09/10 07:07:57;;;;;;;5.15;4.85;;;;;;;;;;5059910;28;20205;-63
2023/09/10 07:10:27;;;;;;;5.03;4.63;;;;;;;;;;5059599;28;20512;-63
2023/09/10 07:12:54;;;;;;;5.10;4.70;;;;;;;;;;5059664;28;20270;-63
2023/09/10 07:15:22;;;;;;;5.00;4.60;;;;;;;;;;5059501;28;20200;-63
2023/09/10 07:17:49;;;;;;;4.97;4.65;;;;;;;;;;5059421;28;20270;-63
2023/09/10 07:20:17;;;;;;;5.20;4.90;;;;;;;;;;5059540;28;20287;-64
2023/09/10 07:22:44;;;;;;;4.95;4.65;;;;;;;;;;5059458;28;20228;-63
2023/09/10 07:25:12;;;;;;;5.40;5.00;;;;;;;;;;5058950;28;20264;-64
2023/09/10 07:27:41;;;;;;;5.50;5.10;;;;;;;;;;5058968;28;20351;-64
2023/09/10 07:30:11;;;;;;;5.20;4.80;;;;;;;;;;5059564;28;20319;-64
2023/09/10 07:32:38;;;;;;;5.15;4.85;;;;;;;;;;5058966;28;20212;-63
2023/09/10 07:35:06;;;;;;;5.35;4.95;;;;;;;;;;5059621;28;20201;-64
2023/09/10 07:37:33;;;;;;;5.00;4.70;;;;;;;;;;5058566;28;20205;-63
2023/09/10 07:40:00;;;;;;;5.22;4.93;;;;;;;;;;5059134;28;20296;-63
2023/09/10 07:42:28;;;;;;;5.65;5.25;;;;;;;;;;5059549;28;20231;-64
2023/09/10 07:44:57;;;;;;;5.22;4.82;;;;;;;;;;5059312;28;20299;-64
2023/09/10 07:47:23;;;;;;;5.40;5.03;;;;;;;;;;5059052;28;20296;-64
2023/09/10 07:49:51;;;;;;;5.28;4.88;;;;;;;;;;5058610;28;20475;-64
2023/09/10 07:52:19;;;;;;;5.60;5.20;;;;;;;;;;5059325;28;20504;-64
2023/09/10 07:54:48;;;;;;;5.00;4.70;;;;;;;;;;5058826;28;20283;-64
2023/09/10 07:57:16;;;;;;;5.70;5.30;;;;;;;;;;5058055;28;20314;-64
2023/09/10 07:59:44;;;;;;;5.50;5.10;;;;;;;;;;5059261;28;20205;-64
2023/09/10 08:02:13;;;;;;;5.07;4.68;;;;;;;;;;5058671;28;20296;-64
2023/09/10 08:04:40;;;;;;;5.47;5.07;;;;;;;;;;5058267;28;20243;-63
2023/09/10 08:07:07;;;;;;;5.28;4.93;;;;;;;;;;5058550;28;20711;-63
2023/09/10 08:09:36;;;;;;;5.25;4.85;;;;;;;;;;5058765;28;20205;-64
2023/09/10 08:12:04;;;;;;;5.20;4.90;;;;;;;;;;5058210;28;20215;-63
2023/09/10 08:14:32;;;;;;;5.10;4.80;;;;;;;;;;5058373;28;20243;-64
2023/09/10 08:16:59;;;;;;;5.50;5.10;;;;;;;;;;5058172;28;20643;-64
2023/09/10 08:19:28;;;;;;;5.00;4.70;;;;;;;;;;5058363;28;20243;-63
2023/09/10 08:21:55;;;;;;;5.20;4.90;;;;;;;;;;5058335;28;20288;-63
2023/09/10 08:24:23;;;;;;;5.32;5.03;;;;;;;;;;5058005;28;20273;-63
2023/09/10 08:26:52;;;;;;;5.40;5.00;;;;;;;;;;5057626;28;20688;-63
2023/09/10 08:29:19;;;;;;;5.40;5.00;;;;;;;;;;5058537;28;20489;-63
2023/09/10 08:31:47;;;;;;;5.28;4.95;;;;;;;;;;5058989;28;20200;-64
2023/09/10 08:34:14;;;;;;;5.32;5.00;;;;;;;;;;5058019;28;20267;-64
2023/09/10 08:36:43;;;;;;;5.60;5.20;;;;;;;;;;5058040;28;20728;-63
2023/09/10 08:39:11;;;;;;;5.50;5.10;;;;;;;;;;5058109;28;20323;-64
2023/09/10 08:41:42;;;;;;;5.25;4.85;;;;;;;;;;5057297;28;20240;-63
2023/09/10 08:44:11;;;;;;;5.00;4.70;;;;;;;;;;5057859;28;20288;-63
2023/09/10 08:46:39;;;;;;;5.10;4.70;;;;;;;;;;5057415;28;20216;-63
2023/09/10 08:49:07;;;;;;;5.22;4.82;;;;;;;;;;5057904;28;20532;-64
2023/09/10 08:51:36;;;;;;;5.53;5.13;;;;;;;;;;5057406;28;20265;-63
2023/09/10 08:54:05;;;;;;;5.22;4.82;;;;;;;;;;5057211;28;20266;-63
2023/09/10 08:56:33;;;;;;;6.32;5.82;;;;;;;;;;5057046;28;20604;-63
2023/09/10 08:59:03;;;;;;;5.55;5.15;;;;;;;;;;5057001;28;20282;-63
2023/09/10 09:01:30;;;;;;;6.60;6.10;;;;;;;;;;5057332;28;20307;-63
2023/09/10 09:03:58;;;;;;;5.90;5.50;;;;;;;;;;5056416;28;20288;-63
2023/09/10 09:06:30;;;;;;;6.03;5.55;;;;;;;;;;5056878;28;20255;-63
2023/09/10 09:08:58;;;;;;;6.20;5.70;;;;;;;;;;5057048;28;20239;-63
2023/09/10 09:11:28;;;;;;;6.15;5.65;;;;;;;;;;5057247;28;20299;-63
2023/09/10 09:13:57;;;;;;;6.53;6.03;;;;;;;;;;5057055;28;20718;-63
2023/09/10 09:16:24;;;;;;;6.13;5.63;;;;;;;;;;5056875;28;20204;-63
2023/09/10 09:18:54;;;;;;;6.25;5.75;;;;;;;;;;5056504;28;20212;-63
2023/09/10 09:21:23;;;;;;;6.50;6.00;;;;;;;;;;5056469;28;20208;-63
2023/09/10 09:23:52;;;;;;;6.03;5.63;;;;;;;;;;5056428;28;20259;-63
2023/09/10 09:26:20;;;;;;;6.05;5.65;;;;;;;;;;5056819;28;20683;-63
2023/09/10 09:28:49;;;;;;;5.78;5.32;;;;;;;;;;5057045;28;20299;-64
2023/09/10 09:31:21;;;;;;;6.25;5.75;;;;;;;;;;5057211;28;20477;-63
2023/09/10 09:33:49;;;;;;;6.20;5.70;;;;;;;;;;5056573;28;20240;-63
2023/09/10 09:36:16;;;;;;;6.20;5.70;;;;;;;;;;5056410;28;20209;-63
2023/09/10 09:38:44;;;;;;;5.60;5.20;;;;;;;;;;5056559;28;20240;-63
2023/09/10 09:41:12;;;;;;;5.60;5.20;;;;;;;;;;5056592;28;20282;-63
2023/09/10 09:43:39;;;;;;;5.93;5.43;;;;;;;;;;5056455;28;20304;-63
2023/09/10 09:46:08;;;;;;;5.43;5.03;;;;;;;;;;5056603;28;20225;-63
2023/09/10 09:48:36;;;;;;;5.47;5.07;;;;;;;;;;5055975;28;20651;-63
2023/09/10 09:51:04;;;;;;;5.15;4.75;;;;;;;;;;5055422;28;20240;-63
2023/09/10 09:53:32;;;;;;;5.85;5.45;;;;;;;;;;5055205;28;20236;-63
2023/09/10 09:56:00;;;;;;;5.53;5.13;;;;;;;;;;5056355;28;20218;-63
2023/09/10 09:58:29;;;;;;;5.72;5.32;;;;;;;;;;5055709;28;20348;-63
2023/09/10 10:00:57;;;;;;;5.50;5.10;;;;;;;;;;5055169;28;20520;-63
2023/09/10 10:03:26;;;;;;;4.95;4.55;;;;;;;;;;5056210;28;20247;-63
2023/09/10 10:05:54;;;;;;;5.30;4.90;;;;;;;;;;5055585;28;20239;-63
2023/09/10 10:08:25;;;;;;;5.80;5.40;;;;;;;;;;5056263;28;20394;-63
2023/09/10 10:10:53;;;;;;;5.32;4.93;;;;;;;;;;5056583;28;20571;-63
2023/09/10 10:13:21;;;;;;;5.97;5.57;;;;;;;;;;5056503;28;20213;-63
2023/09/10 10:15:50;;;;;;;5.32;4.93;;;;;;;;;;5056084;28;20303;-63
2023/09/10 10:18:18;;;;;;;5.60;5.20;;;;;;;;;;5056071;28;20242;-63
2023/09/10 10:20:47;;;;;;;5.80;5.30;;;;;;;;;;5056157;28;20205;-63
2023/09/10 10:23:15;;;;;;;5.40;5.00;;;;;;;;;;5055812;28;20574;-63
2023/09/10 10:25:43;;;;;;;5.63;5.22;;;;;;;;;;5055814;28;20617;-63
2023/09/10 10:28:11;;;;;;;6.10;5.60;;;;;;;;;;5055328;28;20534;-63
2023/09/10 10:30:39;;;;;;;5.47;5.07;;;;;;;;;;5055036;28;20228;-63
2023/09/10 10:33:08;;;;;;;5.65;5.25;;;;;;;;;;5056057;28;20240;-63
2023/09/10 10:35:38;;;;;;;5.40;5.00;;;;;;;;;;5057894;28;20240;-63
2023/09/10 10:38:08;;;;;;;5.30;4.90;;;;;;;;;;5059608;28;20205;-63
2023/09/10 10:40:38;;;;;;;5.30;4.80;;;;;;;;;;5059400;28;20205;-63
2023/09/10 10:43:10;;;;;;;5.50;5.10;;;;;;;;;;5059070;28;20205;-63
2023/09/10 10:45:38;;;;;;;5.50;5.10;;;;;;;;;;5058683;28;20310;-63
2023/09/10 10:48:08;;;;;;;5.55;5.15;;;;;;;;;;5059118;28;20595;-64
2023/09/10 10:50:37;;;;;;;5.80;5.40;;;;;;;;;;5059695;28;20235;-63
2023/09/10 10:53:05;;;;;;;5.78;5.38;;;;;;;;;;5059059;28;20216;-63
2023/09/10 10:55:35;;;;;;;5.65;5.25;;;;;;;;;;5058814;28;20755;-63
2023/09/10 10:58:03;;;;;;;5.50;5.10;;;;;;;;;;5059213;28;20236;-63
2023/09/10 11:00:30;;;;;;;5.78;5.38;;;;;;;;;;5058570;28;20297;-63
2023/09/10 11:03:10;;;;;;;5.30;4.90;;;;;;;;;;5059835;28;20244;-63
2023/09/10 11:06:04;;;;;;;6.10;5.60;;;;;;;;;;5059780;28;20224;-63
2023/09/10 11:08:32;;;;;;;5.65;5.25;;;;;;;;;;5058717;28;20212;-63
2023/09/10 11:11:02;;;;;;;5.55;5.10;;;;;;;;;;5059061;28;20291;-63
2023/09/10 11:13:30;;;;;;;5.68;5.28;;;;;;;;;;5059116;28;20303;-63
2023/09/10 11:16:17;;;;;;;5.82;5.38;;;;;;;;;;5058491;28;20267;-63
2023/09/10 11:18:44;;;;;;;5.60;5.20;;;;;;;;;;5059013;28;20205;-63
2023/09/10 11:21:12;;;;;;;5.35;4.95;;;;;;;;;;5058604;28;20209;-63
2023/09/10 11:23:40;;;;;;;5.43;5.03;;;;;;;;;;5058608;28;20263;-63
2023/09/10 11:26:40;;;;;;;5.93;5.45;;;;;;;;;;5058403;28;20291;-63
2023/09/10 11:29:09;;;;;;;5.53;5.13;;;;;;;;;;4958462;29;20209;-63
2023/09/10 11:31:38;;;;;;;5.70;5.30;;;;;;;;;;4958254;29;20294;-64
2023/09/10 11:34:24;;;;;;;5.70;5.30;;;;;;;;;;5004898;28;20212;-63
2023/09/10 11:36:54;;;;;;;5.63;5.22;;;;;;;;;;5058216;28;20370;-63
2023/09/10 11:39:21;;;;;;;5.40;5.00;;;;;;;;;;5057884;28;20577;-63
2023/09/10 11:41:50;;;;;;;5.32;4.93;;;;;;;;;;5058081;28;20307;-63
2023/09/10 11:44:19;;;;;;;5.57;5.18;;;;;;;;;;5058481;28;20263;-63
2023/09/10 11:46:46;;;;;;;5.47;5.05;;;;;;;;;;5056821;28;20225;-63
2023/09/10 11:49:14;;;;;;;5.90;5.47;;;;;;;;;;5058044;28;20296;-63
2023/09/10 11:51:43;;;;;;;5.22;4.82;;;;;;;;;;5057771;28;20208;-63
2023/09/10 11:54:14;;;;;;;5.50;5.10;;;;;;;;;;5057688;28;20213;-63
2023/09/10 11:56:41;;;;;;;5.43;4.93;;;;;;;;;;5058022;28;20204;-64
2023/09/10 11:59:09;;;;;;;5.40;5.00;;;;;;;;;;5057733;28;20272;-63
2023/09/10 12:01:38;;;;;;;5.78;5.28;;;;;;;;;;5057697;28;20209;-63
2023/09/10 12:04:06;;;;;;;5.68;5.28;;;;;;;;;;5057043;28;20201;-63
2023/09/10 12:06:33;;;;;;;5.65;5.25;;;;;;;;;;5057735;28;20260;-63
2023/09/10 12:09:00;;;;;;;5.80;5.38;;;;;;;;;;5057536;28;20430;-63
2023/09/10 12:11:29;;;;;;;5.63;5.22;;;;;;;;;;5057431;28;20197;-63
2023/09/10 12:13:57;;;;;;;5.32;4.93;;;;;;;;;;5057135;28;20291;-63
2023/09/10 12:16:24;;;;;;;5.60;5.20;;;;;;;;;;5057115;28;20329;-63
2023/09/10 12:18:54;;;;;;;5.85;5.35;;;;;;;;;;5057130;28;20201;-63
2023/09/10 12:21:23;;;;;;;5.63;5.22;;;;;;;;;;5056511;28;20197;-63
2023/09/10 12:23:50;;;;;;;5.50;5.00;;;;;;;;;;5057020;28;20239;-63
2023/09/10 12:26:19;;;;;;;5.57;5.18;;;;;;;;;;5056725;28;20319;-63
2023/09/10 12:28:46;;;;;;;5.28;4.88;;;;;;;;;;5057091;28;20211;-64
2023/09/10 12:31:14;;;;;;;5.35;4.95;;;;;;;;;;5057022;28;20255;-64
2023/09/10 12:33:42;;;;;;;5.45;5.05;;;;;;;;;;5055626;28;20251;-64
2023/09/10 12:36:11;;;;;;;5.50;5.10;;;;;;;;;;5057227;28;20362;-63
2023/09/10 12:38:38;;;;;;;5.95;5.53;;;;;;;;;;5057181;28;20288;-63
2023/09/10 12:41:06;;;;;;;5.55;5.15;;;;;;;;;;5056768;28;20205;-63
2023/09/10 12:43:33;;;;;;;5.63;5.22;;;;;;;;;;5056452;28;20241;-63
2023/09/10 12:46:02;;;;;;;5.30;4.90;;;;;;;;;;5056872;28;20268;-64
2023/09/10 12:48:29;;;;;;;5.85;5.38;;;;;;;;;;5056519;28;20308;-63
2023/09/10 12:50:57;;;;;;;5.90;5.50;;;;;;;;;;5056313;28;20235;-63
2023/09/10 12:53:26;;;;;;;5.80;5.40;;;;;;;;;;5056548;28;20303;-63
2023/09/10 12:55:55;;;;;;;5.50;5.10;;;;;;;;;;5056522;28;20236;-63
2023/09/10 12:58:23;;;;;;;5.80;5.40;;;;;;;;;;5054852;28;20233;-63
2023/09/10 13:00:56;;;;;;;6.00;5.50;;;;;;;;;;5056003;28;20521;-63
2023/09/10 13:03:24;;;;;;;5.20;4.80;;;;;;;;;;5055622;28;20213;-63
2023/09/10 13:05:51;;;;;;;5.50;5.10;;;;;;;;;;5055631;28;20323;-63
2023/09/10 13:08:19;;;;;;;5.75;5.32;;;;;;;;;;5056006;28;20201;-63
2023/09/10 13:10:48;;;;;;;6.07;5.68;;;;;;;;;;5056764;28;20247;-64
2023/09/10 13:13:15;;;;;;;5.57;5.13;;;;;;;;;;5056039;28;20574;-63
2023/09/10 13:15:43;;;;;;;5.50;5.10;;;;;;;;;;5056004;28;20295;-63
2023/09/10 13:18:10;;;;;;;5.55;5.15;;;;;;;;;;5056216;28;20207;-63
2023/09/10 13:20:38;;;;;;;5.70;5.30;;;;;;;;;;5055909;28;20288;-63
2023/09/10 13:23:05;;;;;;;5.55;5.15;;;;;;;;;;5055637;28;20205;-63
2023/09/10 13:25:33;;;;;;;5.55;5.15;;;;;;;;;;5055232;28;20205;-63
2023/09/10 13:28:03;;;;;;;5.60;5.20;;;;;;;;;;5054557;28;20299;-63
2023/09/10 13:30:31;;;;;;;5.90;5.47;;;;;;;;;;5055712;28;20205;-63
2023/09/10 13:33:00;;;;;;;5.85;5.45;;;;;;;;;;5055998;28;20312;-63
2023/09/10 13:35:27;;;;;;;6.03;5.53;;;;;;;;;;5055078;28;20216;-63
2023/09/10 13:37:55;;;;;;;5.70;5.30;;;;;;;;;;5055005;28;20304;-63
2023/09/10 13:40:23;;;;;;;5.70;5.30;;;;;;;;;;5055475;28;20663;-63
2023/09/10 13:42:50;;;;;;;5.82;5.40;;;;;;;;;;5055573;28;20266;-64
2023/09/10 13:45:20;;;;;;;5.93;5.53;;;;;;;;;;5056299;28;20205;-64
2023/09/10 13:47:47;;;;;;;5.28;4.88;;;;;;;;;;5055501;28;20311;-63
2023/09/10 13:50:15;;;;;;;5.70;5.30;;;;;;;;;;5054733;28;20288;-63
2023/09/10 13:52:43;;;;;;;6.28;5.78;;;;;;;;;;5055378;28;20296;-63
2023/09/10 13:55:11;;;;;;;6.32;5.82;;;;;;;;;;5055600;28;20216;-63
2023/09/10 13:57:39;;;;;;;5.80;5.30;;;;;;;;;;5055076;28;20286;-63
2023/09/10 14:00:08;;;;;;;6.00;5.50;;;;;;;;;;5055227;28;20305;-63
2023/09/10 14:02:37;;;;;;;5.50;5.10;;;;;;;;;;5054670;28;20216;-63
2023/09/10 14:05:04;;;;;;;5.50;5.10;;;;;;;;;;5054912;28;20586;-63
2023/09/10 14:07:32;;;;;;;5.55;5.15;;;;;;;;;;5053630;28;20628;-63
2023/09/10 14:10:00;;;;;;;5.85;5.35;;;;;;;;;;5053205;28;20603;-63
2023/09/10 14:12:27;;;;;;;5.63;5.22;;;;;;;;;;5053655;28;20286;-63
2023/09/10 14:14:55;;;;;;;6.22;5.72;;;;;;;;;;5054189;28;20240;-63
2023/09/10 14:17:22;;;;;;;5.90;5.50;;;;;;;;;;5054579;28;20304;-64
2023/09/10 14:19:51;;;;;;;5.22;4.82;;;;;;;;;;5055305;28;20299;-63
2023/09/10 14:22:19;;;;;;;5.65;5.15;;;;;;;;;;5054289;28;20200;-63
2023/09/10 14:24:46;;;;;;;5.78;5.38;;;;;;;;;;5053457;28;20212;-63
2023/09/10 14:27:14;;;;;;;5.80;5.40;;;;;;;;;;5054042;28;20235;-63
2023/09/10 14:29:41;;;;;;;6.10;5.60;;;;;;;;;;5055248;28;20201;-63
2023/09/10 14:32:09;;;;;;;5.72;5.32;;;;;;;;;;5055129;28;20220;-63
2023/09/10 14:34:38;;;;;;;5.63;5.22;;;;;;;;;;5055294;28;20244;-63
2023/09/10 14:37:07;;;;;;;5.78;5.38;;;;;;;;;;5054595;28;20701;-63
2023/09/10 14:39:34;;;;;;;5.38;4.97;;;;;;;;;;5054642;28;20619;-63
2023/09/10 14:42:02;;;;;;;5.80;5.30;;;;;;;;;;5054694;28;20274;-63
2023/09/10 14:44:29;;;;;;;5.80;5.38;;;;;;;;;;5055089;28;20596;-63
2023/09/10 14:46:57;;;;;;;5.93;5.53;;;;;;;;;;5053855;28;20328;-63
2023/09/10 14:49:25;;;;;;;5.68;5.28;;;;;;;;;;5054675;28;20209;-63